createdAt,value
2024-05-09T00:00:22.033Z,11.81
2024-05-09T00:02:52.812Z,11.77
2024-05-09T00:05:19.260Z,11.79
2024-05-09T00:07:45.698Z,11.65
2024-05-09T00:10:22.064Z,11.57
2024-05-09T00:12:54.941Z,11.57
2024-05-09T00:15:21.204Z,11.52
2024-05-09T00:17:47.655Z,11.44
2024-05-09T00:20:17.862Z,11.47
2024-05-09T00:22:50.402Z,11.49
2024-05-09T00:25:16.757Z,11.53
2024-05-09T00:27:43.017Z,11.54
2024-05-09T00:30:14.350Z,11.40
2024-05-09T00:32:43.909Z,11.41
2024-05-09T00:35:10.300Z,11.43
2024-05-09T00:37:36.608Z,11.47
2024-05-09T00:40:03.543Z,11.46
2024-05-09T00:42:29.899Z,11.40
2024-05-09T00:44:56.192Z,11.47
2024-05-09T00:47:22.723Z,11.44
2024-05-09T00:49:49.238Z,11.38
2024-05-09T00:52:15.658Z,11.27
2024-05-09T00:54:41.934Z,11.23
2024-05-09T00:57:08.234Z,11.20
2024-05-09T00:59:34.651Z,11.14
2024-05-09T01:02:01.068Z,11.18
2024-05-09T01:04:27.476Z,11.15
2024-05-09T01:06:53.743Z,11.12
2024-05-09T01:09:20.033Z,11.09
2024-05-09T01:11:46.501Z,11.06
2024-05-09T01:14:12.847Z,11.12
2024-05-09T01:16:39.134Z,11.12
2024-05-09T01:19:05.509Z,11.15
2024-05-09T01:21:31.855Z,11.16
2024-05-09T01:23:58.135Z,11.12
2024-05-09T01:26:24.461Z,11.03
2024-05-09T01:28:50.848Z,11.01
2024-05-09T01:31:17.159Z,11.05
2024-05-09T01:33:43.602Z,11.07
2024-05-09T01:36:09.944Z,11.08
2024-05-09T01:38:36.323Z,11.04
2024-05-09T01:41:02.761Z,11.01
2024-05-09T01:43:29.071Z,10.98
2024-05-09T01:45:55.359Z,10.98
2024-05-09T01:48:21.881Z,10.91
2024-05-09T01:50:48.271Z,10.90
2024-05-09T01:53:15.280Z,10.89
2024-05-09T01:55:41.794Z,10.98
2024-05-09T01:58:08.062Z,10.86
2024-05-09T02:00:39.611Z,10.80
2024-05-09T02:03:08.630Z,10.86
2024-05-09T02:05:35.341Z,10.90
2024-05-09T02:08:01.718Z,10.83
2024-05-09T02:21:51.073Z,10.74
2024-05-09T02:24:17.353Z,10.78
2024-05-09T02:26:43.628Z,10.84
2024-05-09T02:29:10.018Z,10.91
2024-05-09T02:31:36.317Z,10.91
2024-05-09T02:34:02.760Z,10.88
2024-05-09T02:36:29.146Z,10.87
2024-05-09T02:38:55.421Z,10.71
2024-05-09T02:41:21.787Z,10.65
2024-05-09T02:43:48.096Z,10.51
2024-05-09T02:46:14.360Z,10.56
2024-05-09T02:48:40.732Z,10.52
2024-05-09T02:51:07.256Z,10.58
2024-05-09T02:53:33.771Z,10.69
2024-05-09T02:56:00.310Z,10.67
2024-05-09T02:58:26.607Z,10.57
2024-05-09T03:00:52.964Z,10.58
2024-05-09T03:03:19.579Z,10.55
2024-05-09T03:05:46.597Z,10.56
2024-05-09T03:08:13.345Z,10.49
2024-05-09T03:10:39.968Z,10.42
2024-05-09T03:13:06.346Z,10.43
2024-05-09T03:15:32.599Z,10.41
2024-05-09T03:17:58.989Z,10.40
2024-05-09T03:20:32.426Z,10.34
2024-05-09T03:23:01.047Z,10.16
2024-05-09T03:25:27.398Z,10.12
2024-05-09T03:27:53.655Z,10.11
2024-05-09T03:30:26.200Z,10.06
2024-05-09T03:33:01.948Z,10.01
2024-05-09T03:35:28.391Z,10.08
2024-05-09T03:37:54.693Z,10.19
2024-05-09T03:40:26.084Z,10.12
2024-05-09T03:42:53.082Z,9.96
2024-05-09T03:45:19.348Z,9.88
2024-05-09T03:47:45.896Z,9.93
2024-05-09T03:50:18.490Z,10.01
2024-05-09T03:52:52.255Z,10.13
2024-05-09T03:55:18.555Z,10.08
2024-05-09T03:57:44.856Z,9.98
2024-05-09T04:00:17.676Z,9.97
2024-05-09T04:02:49.092Z,10.05
2024-05-09T04:05:15.569Z,10.03
2024-05-09T04:07:41.853Z,10.08
2024-05-09T04:10:11.256Z,10.20
2024-05-09T04:12:43.199Z,10.23
2024-05-09T04:15:12.874Z,10.33
2024-05-09T04:17:39.954Z,10.29
2024-05-09T04:20:08.375Z,10.30
2024-05-09T04:22:34.807Z,10.39
2024-05-09T04:25:01.077Z,10.48
2024-05-09T04:27:27.379Z,10.51
2024-05-09T04:29:53.646Z,10.50
2024-05-09T04:32:19.991Z,10.52
2024-05-09T04:34:46.356Z,10.46
2024-05-09T04:37:12.806Z,10.46
2024-05-09T04:39:39.108Z,10.45
2024-05-09T04:42:05.373Z,10.55
2024-05-09T04:44:31.679Z,10.55
2024-05-09T04:46:58.036Z,10.62
2024-05-09T04:49:24.468Z,10.67
2024-05-09T04:51:50.849Z,10.71
2024-05-09T04:54:26.464Z,10.63
2024-05-09T04:57:00.292Z,10.72
2024-05-09T04:59:26.689Z,10.68
2024-05-09T05:01:53.119Z,10.73
2024-05-09T05:04:19.568Z,10.74
2024-05-09T05:06:45.871Z,10.88
2024-05-09T05:09:12.168Z,10.99
2024-05-09T05:11:38.529Z,11.04
2024-05-09T05:14:04.895Z,11.04
2024-05-09T05:16:31.200Z,11.03
2024-05-09T05:18:57.502Z,11.09
2024-05-09T05:21:23.984Z,11.16
2024-05-09T05:23:50.353Z,11.20
2024-05-09T05:26:16.723Z,11.22
2024-05-09T05:28:43.046Z,11.29
2024-05-09T05:31:09.436Z,11.39
2024-05-09T05:33:35.815Z,11.44
2024-05-09T05:36:02.149Z,11.49
2024-05-09T05:38:28.881Z,11.52
2024-05-09T05:40:55.356Z,11.58
2024-05-09T05:43:21.828Z,11.63
2024-05-09T05:45:48.165Z,11.66
2024-05-09T05:48:14.576Z,11.73
2024-05-09T05:50:41.007Z,11.73
2024-05-09T05:53:08.286Z,11.76
2024-05-09T05:55:35.178Z,11.86
2024-05-09T05:58:01.483Z,11.90
2024-05-09T06:00:34.459Z,11.99
2024-05-09T06:03:04.560Z,12.06
2024-05-09T06:05:30.985Z,12.15
2024-05-09T06:07:57.361Z,12.20
2024-05-09T06:10:29.645Z,12.26
2024-05-09T06:13:01.225Z,12.30
2024-05-09T06:15:27.500Z,12.42
2024-05-09T06:17:54.145Z,12.48
2024-05-09T06:20:27.387Z,12.51
2024-05-09T06:23:01.074Z,12.64
2024-05-09T06:25:27.330Z,12.65
2024-05-09T06:27:53.603Z,12.76
2024-05-09T06:30:26.287Z,12.77
2024-05-09T06:33:01.585Z,12.93
2024-05-09T06:35:28.092Z,13.02
2024-05-09T06:37:54.586Z,13.16
2024-05-09T06:40:25.735Z,13.20
2024-05-09T06:43:00.287Z,13.21
2024-05-09T06:45:26.539Z,13.30
2024-05-09T06:47:53.123Z,13.30
2024-05-09T06:50:24.021Z,13.44
2024-05-09T06:52:54.292Z,13.59
2024-05-09T06:55:20.577Z,13.69
2024-05-09T06:57:46.852Z,13.74
2024-05-09T07:00:19.160Z,13.87
2024-05-09T07:02:53.772Z,14.02
2024-05-09T07:05:20.240Z,14.08
2024-05-09T07:07:46.625Z,14.23
2024-05-09T07:10:18.081Z,14.23
2024-05-09T07:12:51.449Z,14.32
2024-05-09T07:15:17.702Z,14.44
2024-05-09T07:17:44.064Z,14.58
2024-05-09T07:20:16.186Z,14.79
2024-05-09T07:22:46.317Z,15.01
2024-05-09T07:25:12.688Z,15.05
2024-05-09T07:27:38.967Z,15.04
2024-05-09T07:30:07.141Z,15.10
2024-05-09T07:32:33.657Z,15.17
2024-05-09T07:35:00.205Z,15.36
2024-05-09T07:37:26.588Z,15.45
2024-05-09T07:39:52.846Z,15.50
2024-05-09T07:42:19.121Z,15.64
2024-05-09T07:44:45.387Z,15.77
2024-05-09T07:48:27.583Z,15.80
2024-05-09T07:53:32.365Z,16.19
2024-05-09T07:55:13.448Z,16.33
2024-05-09T07:57:39.875Z,16.39
2024-05-09T08:00:06.755Z,16.46
2024-05-09T08:02:33.272Z,16.65
2024-05-09T08:04:59.687Z,16.70
2024-05-09T08:07:26.017Z,16.78
2024-05-09T08:09:52.324Z,16.75
2024-05-09T08:12:18.651Z,16.79
2024-05-09T08:14:44.975Z,16.92
2024-05-09T08:17:11.302Z,17.05
2024-05-09T08:19:37.682Z,17.15
2024-05-09T08:22:04.074Z,17.26
2024-05-09T08:24:30.564Z,17.42
2024-05-09T08:26:56.891Z,17.40
2024-05-09T08:29:23.168Z,17.57
2024-05-09T08:31:49.507Z,17.72
2024-05-09T08:34:16.047Z,17.86
2024-05-09T08:36:42.473Z,18.05
2024-05-09T08:39:08.796Z,18.14
2024-05-09T08:41:35.124Z,18.19
2024-05-09T08:44:01.422Z,18.32
2024-05-09T08:46:27.909Z,18.33
2024-05-09T08:48:54.528Z,18.38
2024-05-09T08:51:20.847Z,18.48
2024-05-09T08:53:47.136Z,18.60
2024-05-09T08:56:13.437Z,18.71
2024-05-09T08:58:39.704Z,18.63
2024-05-09T09:01:06.068Z,18.78
2024-05-09T10:00:21.127Z,20.48
2024-05-09T10:02:53.196Z,20.58
2024-05-09T10:05:19.567Z,20.61
2024-05-09T10:07:45.895Z,20.80
2024-05-09T10:10:16.233Z,20.37
2024-05-09T10:12:42.738Z,20.16
2024-05-09T10:15:09.020Z,20.31
2024-05-09T10:17:35.444Z,20.54
2024-05-09T10:20:01.809Z,20.95
2024-05-09T10:22:28.117Z,21.09
2024-05-09T10:24:54.573Z,21.10
2024-05-09T10:27:20.895Z,20.91
2024-05-09T10:29:47.158Z,20.86
2024-05-09T10:32:13.427Z,20.87
2024-05-09T10:34:39.748Z,20.82
2024-05-09T10:37:06.138Z,20.68
2024-05-09T10:39:32.478Z,20.45
2024-05-09T10:41:58.782Z,20.17
2024-05-09T10:44:25.097Z,20.29
2024-05-09T10:46:51.370Z,20.43
2024-05-09T10:49:17.890Z,20.52
2024-05-09T10:51:44.420Z,20.56
2024-05-09T10:54:10.740Z,20.60
2024-05-09T10:56:37.017Z,20.30
2024-05-09T10:59:03.288Z,20.37
2024-05-09T11:01:29.676Z,20.55
2024-05-09T11:03:56.251Z,20.56
2024-05-09T11:06:22.637Z,20.75
2024-05-09T11:08:48.911Z,20.82
2024-05-09T11:11:15.259Z,20.80
2024-05-09T11:13:41.600Z,21.08
2024-05-09T11:16:08.004Z,21.24
2024-05-09T11:18:37.931Z,21.13
2024-05-09T11:21:05.458Z,21.12
2024-05-09T11:23:31.759Z,21.34
2024-05-09T11:25:58.050Z,21.42
2024-05-09T11:28:24.371Z,21.39
2024-05-09T11:30:50.651Z,21.35
2024-05-09T11:33:16.982Z,21.66
2024-05-09T11:35:43.273Z,21.65
2024-05-09T11:38:09.542Z,21.89
2024-05-09T11:40:35.845Z,21.89
2024-05-09T11:43:02.199Z,21.89
2024-05-09T11:45:28.588Z,21.63
2024-05-09T11:47:54.968Z,21.48
2024-05-09T11:50:27.216Z,21.19
2024-05-09T11:52:58.729Z,21.01
2024-05-09T11:55:27.553Z,20.99
2024-05-09T11:57:54.762Z,20.99
2024-05-09T12:00:29.280Z,20.89
2024-05-09T12:03:02.502Z,20.82
2024-05-09T12:05:29.189Z,20.87
2024-05-09T12:07:55.658Z,20.81
2024-05-09T12:10:26.270Z,20.86
2024-05-09T12:12:58.463Z,20.78
2024-05-09T12:15:24.827Z,20.74
2024-05-09T12:17:51.338Z,20.68
2024-05-09T12:20:25.773Z,20.62
2024-05-09T12:22:59.347Z,20.66
2024-05-09T12:25:25.684Z,20.64
2024-05-09T12:27:52.041Z,20.59
2024-05-09T12:30:28.836Z,20.74
2024-05-09T12:33:02.458Z,20.89
2024-05-09T12:35:28.790Z,21.00
2024-05-09T12:37:55.067Z,21.28
2024-05-09T12:40:30.707Z,21.37
2024-05-09T12:43:01.379Z,21.71
2024-05-09T12:45:27.676Z,21.95
2024-05-09T12:47:54.108Z,22.13
2024-05-09T12:50:29.146Z,22.12
2024-05-09T12:52:58.319Z,22.19
2024-05-09T12:55:24.628Z,22.33
2024-05-09T12:57:50.942Z,22.44
2024-05-09T13:00:23.978Z,22.53
2024-05-09T13:02:57.379Z,22.74
2024-05-09T13:05:24.022Z,22.63
2024-05-09T13:07:50.573Z,22.77
2024-05-09T13:10:25.517Z,22.71
2024-05-09T13:12:57.779Z,23.05
2024-05-09T13:15:24.151Z,22.98
2024-05-09T13:17:50.509Z,23.17
2024-05-09T13:20:25.732Z,23.21
2024-05-09T13:22:55.841Z,23.34
2024-05-09T13:25:22.111Z,23.00
2024-05-09T13:27:48.466Z,23.17
2024-05-09T13:30:21.899Z,23.25
2024-05-09T13:32:55.514Z,23.18
2024-05-09T13:35:21.868Z,23.19
2024-05-09T13:37:48.192Z,23.25
2024-05-09T13:40:14.625Z,23.48
2024-05-09T13:42:41.018Z,23.78
2024-05-09T13:45:07.304Z,24.16
2024-05-09T13:47:33.672Z,24.40
2024-05-09T13:50:00.173Z,24.54
2024-05-09T13:52:26.496Z,24.72
2024-05-09T13:54:52.800Z,24.65
2024-05-09T13:57:19.148Z,24.70
2024-05-09T13:59:45.401Z,24.55
2024-05-09T14:02:11.821Z,24.43
2024-05-09T14:04:38.370Z,23.81
2024-05-09T14:07:04.910Z,24.13
2024-05-09T14:09:31.268Z,24.13
2024-05-09T14:11:57.614Z,23.87
2024-05-09T14:14:24.007Z,24.00
2024-05-09T14:16:50.362Z,23.58
2024-05-09T14:19:16.848Z,23.68
2024-05-09T14:21:43.322Z,23.87
2024-05-09T14:24:09.624Z,24.21
2024-05-09T14:26:35.879Z,24.40
2024-05-09T14:29:02.254Z,24.34
2024-05-09T14:31:28.709Z,24.42
2024-05-09T14:33:55.197Z,24.44
2024-05-09T14:36:21.714Z,24.32
2024-05-09T14:38:47.976Z,24.48
2024-05-09T14:41:14.252Z,24.47
2024-05-09T14:43:40.744Z,24.47
2024-05-09T14:46:07.181Z,24.43
2024-05-09T14:48:33.660Z,24.57
2024-05-09T14:51:00.110Z,24.81
2024-05-09T14:53:26.387Z,24.79
2024-05-09T14:55:52.707Z,24.51
2024-05-09T14:58:19.280Z,24.57
2024-05-09T15:00:49.573Z,24.46
2024-05-09T15:03:17.526Z,24.59
2024-05-09T15:05:44.000Z,24.71
2024-05-09T15:08:10.358Z,24.69
2024-05-09T15:10:37.556Z,24.87
2024-05-09T15:13:04.510Z,24.87
2024-05-09T15:15:31.191Z,24.57
2024-05-09T15:17:57.753Z,24.59
2024-05-09T15:20:31.448Z,24.48
2024-05-09T15:23:01.756Z,24.50
2024-05-09T15:25:28.100Z,24.63
2024-05-09T15:27:54.433Z,24.50
2024-05-09T15:30:27.577Z,24.53
2024-05-09T15:32:56.616Z,24.68
2024-05-09T15:35:22.976Z,24.68
2024-05-09T15:37:49.225Z,24.40
2024-05-09T15:40:25.848Z,24.50
2024-05-09T15:43:01.301Z,24.29
2024-05-09T15:45:27.642Z,24.35
2024-05-09T15:47:54.018Z,24.63
2024-05-09T15:50:28.573Z,24.93
2024-05-09T15:53:02.435Z,25.12
2024-05-09T15:55:28.738Z,25.27
2024-05-09T15:57:55.054Z,25.38
2024-05-09T16:00:28.750Z,25.87
2024-05-09T16:03:02.480Z,25.98
2024-05-09T16:05:28.912Z,25.87
2024-05-09T16:07:55.318Z,25.78
2024-05-09T16:10:25.963Z,25.81
2024-05-09T16:12:57.920Z,25.58
2024-05-09T16:15:24.211Z,25.72
2024-05-09T16:17:50.652Z,25.46
2024-05-09T16:20:26.389Z,25.61
2024-05-09T16:23:00.773Z,25.60
2024-05-09T16:25:27.064Z,25.35
2024-05-09T16:27:53.490Z,25.10
2024-05-09T16:30:27.840Z,25.09
2024-05-09T16:33:00.404Z,25.10
2024-05-09T16:35:26.800Z,25.02
2024-05-09T16:37:53.174Z,24.76
2024-05-09T16:40:29.288Z,24.39
2024-05-09T16:43:01.040Z,23.98
2024-05-09T16:45:27.343Z,24.06
2024-05-09T16:47:53.718Z,23.98
2024-05-09T16:50:26.423Z,24.08
2024-05-09T16:52:57.724Z,23.97
2024-05-09T16:55:24.181Z,23.87
2024-05-09T16:57:50.610Z,23.80
2024-05-09T17:00:25.539Z,23.62
2024-05-09T17:02:58.177Z,23.29
2024-05-09T17:05:24.756Z,23.09
2024-05-09T17:07:51.267Z,22.98
2024-05-09T17:10:26.470Z,22.51
2024-05-09T17:12:58.441Z,22.45
2024-05-09T17:15:24.735Z,22.33
2024-05-09T17:17:51.068Z,22.33
2024-05-09T17:20:28.833Z,22.21
2024-05-09T17:22:59.684Z,22.13
2024-05-09T17:25:25.959Z,21.76
2024-05-09T17:27:52.276Z,21.67
2024-05-09T17:30:28.320Z,21.52
2024-05-09T17:32:58.974Z,21.43
2024-05-09T17:35:28.385Z,21.30
2024-05-09T17:37:54.679Z,21.26
2024-05-09T17:40:30.084Z,21.43
2024-05-09T17:42:59.757Z,21.34
2024-05-09T17:45:26.084Z,21.42
2024-05-09T17:47:52.496Z,21.30
2024-05-09T17:50:27.249Z,21.36
2024-05-09T17:53:00.021Z,21.35
2024-05-09T17:55:26.392Z,21.10
2024-05-09T17:57:52.747Z,21.09
2024-05-09T18:00:28.772Z,21.16
2024-05-09T18:03:03.105Z,21.40
2024-05-09T18:05:29.553Z,21.70
2024-05-09T18:07:55.900Z,21.82
2024-05-09T18:10:26.166Z,21.83
2024-05-09T18:12:59.404Z,21.77
2024-05-09T18:15:25.735Z,21.78
2024-05-09T18:17:52.245Z,21.95
2024-05-09T18:20:28.610Z,21.79
2024-05-09T18:23:03.755Z,21.64
2024-05-09T18:25:30.029Z,21.64
2024-05-09T18:27:56.391Z,21.55
2024-05-09T18:30:28.286Z,21.23
2024-05-09T18:33:00.670Z,21.11
2024-05-09T18:35:27.090Z,20.99
2024-05-09T18:37:53.350Z,20.97
2024-05-09T18:40:27.338Z,20.91
2024-05-09T18:42:57.693Z,20.86
2024-05-09T18:45:24.032Z,20.78
2024-05-09T18:47:50.336Z,20.70
2024-05-09T18:50:24.704Z,20.49
2024-05-09T18:52:58.482Z,20.40
2024-05-09T18:55:24.791Z,20.27
2024-05-09T18:57:51.126Z,20.08
2024-05-09T19:00:30.864Z,19.91
2024-05-09T19:03:01.873Z,19.87
2024-05-09T19:05:28.478Z,19.69
2024-05-09T19:07:54.943Z,19.46
2024-05-09T19:10:23.065Z,19.25
2024-05-09T19:12:52.615Z,19.04
2024-05-09T19:15:18.929Z,18.84
2024-05-09T19:17:45.242Z,18.71
2024-05-09T19:20:20.620Z,18.47
2024-05-09T19:22:54.776Z,18.24
2024-05-09T19:25:21.225Z,18.22
2024-05-09T19:27:47.563Z,18.13
2024-05-09T19:30:24.938Z,17.98
2024-05-09T19:32:59.820Z,17.97
2024-05-09T19:35:26.137Z,17.89
2024-05-09T19:37:52.442Z,17.81
2024-05-09T19:40:25.106Z,17.66
2024-05-09T19:42:57.345Z,17.54
2024-05-09T19:45:23.660Z,17.45
2024-05-09T19:47:49.993Z,17.36
2024-05-09T19:50:23.073Z,17.23
2024-05-09T19:52:57.815Z,17.10
2024-05-09T19:55:24.180Z,16.98
2024-05-09T19:57:50.530Z,16.90
2024-05-09T20:00:22.222Z,16.84
2024-05-09T20:02:55.463Z,16.79
2024-05-09T20:05:22.055Z,16.65
2024-05-09T20:07:48.443Z,16.58
2024-05-09T20:10:23.248Z,16.49
2024-05-09T20:12:52.894Z,16.39
2024-05-09T20:15:19.194Z,16.38
2024-05-09T20:17:45.574Z,16.29
2024-05-09T20:20:20.299Z,16.12
2024-05-09T20:22:54.501Z,16.07
2024-05-09T20:25:20.925Z,15.96
2024-05-09T20:27:47.244Z,15.94
2024-05-09T20:30:20.898Z,15.93
2024-05-09T20:32:51.521Z,15.82
2024-05-09T20:35:17.838Z,15.69
2024-05-09T20:37:44.124Z,15.66
2024-05-09T20:40:18.136Z,15.63
2024-05-09T20:42:51.218Z,15.46
2024-05-09T20:45:17.506Z,15.45
2024-05-09T20:47:43.902Z,15.48
2024-05-09T20:50:20.196Z,15.30
2024-05-09T20:52:54.524Z,15.30
2024-05-09T20:55:20.891Z,15.33
2024-05-09T20:57:47.287Z,15.24
2024-05-09T21:00:18.697Z,15.16
2024-05-09T21:02:48.582Z,15.10
2024-05-09T21:05:15.239Z,15.04
2024-05-09T21:07:41.618Z,15.06
2024-05-09T21:10:15.281Z,15.07
2024-05-09T21:12:45.769Z,15.07
2024-05-09T21:15:12.073Z,14.99
2024-05-09T21:17:38.394Z,14.91
2024-05-09T21:20:09.417Z,14.95
2024-05-09T21:22:40.625Z,14.85
2024-05-09T21:25:06.948Z,14.76
2024-05-09T21:27:33.298Z,14.74
2024-05-09T21:29:59.675Z,14.74
2024-05-09T21:32:26.123Z,14.69
2024-05-09T21:34:52.578Z,14.59
2024-05-09T21:37:18.919Z,14.56
2024-05-09T21:39:45.320Z,14.43
2024-05-09T21:42:11.657Z,14.43
2024-05-09T21:44:37.924Z,14.24
2024-05-09T21:47:04.266Z,14.19
2024-05-09T21:49:30.804Z,14.05
2024-05-09T21:51:57.179Z,14.06
2024-05-09T21:54:23.460Z,14.10
2024-05-09T21:56:49.723Z,14.03
2024-05-09T21:59:16.000Z,13.96
2024-05-09T22:01:42.414Z,14.03
2024-05-09T22:04:08.842Z,13.93
2024-05-09T22:06:35.283Z,13.91
2024-05-09T22:09:01.580Z,13.91
2024-05-09T22:11:27.874Z,13.90
2024-05-09T22:13:54.159Z,13.77
2024-05-09T22:16:20.447Z,13.73
2024-05-09T22:18:46.880Z,13.74
2024-05-09T22:21:13.217Z,13.68
2024-05-09T22:23:39.483Z,13.61
2024-05-09T22:26:05.765Z,13.65
2024-05-09T22:28:32.127Z,13.67
2024-05-09T22:30:58.489Z,13.48
2024-05-09T22:33:24.924Z,13.35
2024-05-09T22:35:51.344Z,13.46
2024-05-09T22:38:17.655Z,13.47
2024-05-09T22:40:48.358Z,13.42
2024-05-09T22:43:16.268Z,13.44
2024-05-09T22:45:42.695Z,13.44
2024-05-09T22:48:09.400Z,13.47
2024-05-09T22:50:36.037Z,13.41
2024-05-09T22:53:02.428Z,13.44
2024-05-09T22:55:28.843Z,13.43
2024-05-09T22:57:55.345Z,13.33
2024-05-09T23:00:29.421Z,13.31
2024-05-09T23:02:58.319Z,13.31
2024-05-09T23:05:24.771Z,13.35
2024-05-09T23:07:51.099Z,13.29
2024-05-09T23:10:24.965Z,13.26
2024-05-09T23:12:58.450Z,13.23
2024-05-09T23:15:24.765Z,13.18
2024-05-09T23:17:51.116Z,13.04
2024-05-09T23:20:25.910Z,13.04
2024-05-09T23:22:56.389Z,12.95
2024-05-09T23:25:22.798Z,12.90
2024-05-09T23:27:49.121Z,12.98
2024-05-09T23:30:25.381Z,13.00
2024-05-09T23:32:55.755Z,13.00
2024-05-09T23:35:22.060Z,12.98
2024-05-09T23:37:48.328Z,12.94
2024-05-09T23:40:18.744Z,12.86
2024-05-09T23:42:48.991Z,12.85
2024-05-09T23:45:15.345Z,12.87
2024-05-09T23:47:41.855Z,12.85
2024-05-09T23:50:16.242Z,12.75
2024-05-09T23:52:46.682Z,12.73
2024-05-09T23:55:13.109Z,12.77
2024-05-09T23:57:39.505Z,12.72
